Time;durP1;ratioP1;P1;durP2;ratioP2;P2;SDS_P1;SDS_P2;PMS_P1;PMS_P2;Temp;Humidity;BMP_temperature;BMP_pressure;BME280_temperature;BME280_humidity;BME280_pressure;Samples;Min_cycle;Max_cycle;Signal;HPM_P1;HPM_P2
2022/10/14 00:00:23;;;;;;;15.57;12.67;;;;;;;14.09;100.00;101977.38;2062830;28;20232;-63
2022/10/14 00:01:23;;;;;;;14.83;11.03;;;;;;;14.10;100.00;101980.97;2062893;28;20276;-63
2022/10/14 00:02:24;;;;;;;15.67;11.27;;;;;;;14.08;100.00;101977.81;2062984;28;20204;-63
2022/10/14 00:03:24;;;;;;;14.30;11.40;;;;;;;13.97;100.00;101966.84;2062371;28;20259;-63
2022/10/14 00:04:25;;;;;;;14.30;11.27;;;;;;;14.02;100.00;101983.06;2062461;28;20190;-63
2022/10/14 00:05:25;;;;;;;13.73;11.57;;;;;;;13.94;100.00;101964.09;2062894;28;20562;-63
2022/10/14 00:06:29;;;;;;;13.20;11.80;;;;;;;13.98;100.00;101976.75;2062929;28;20619;-63
2022/10/14 00:07:29;;;;;;;15.70;12.07;;;;;;;13.96;100.00;101983.97;2062789;28;20243;-63
2022/10/14 00:08:30;;;;;;;16.53;12.83;;;;;;;13.94;100.00;101978.81;2062759;28;20459;-63
2022/10/14 00:09:30;;;;;;;15.13;12.33;;;;;;;13.92;100.00;101972.88;2062537;28;20207;-63
2022/10/14 00:10:31;;;;;;;15.07;11.37;;;;;;;13.53;100.00;101910.66;2062699;28;20220;-63
2022/10/14 00:11:33;;;;;;;14.23;11.23;;;;;;;13.82;100.00;101967.47;2062800;28;20193;-63
2022/10/14 00:12:33;;;;;;;15.53;11.10;;;;;;;13.76;100.00;101958.81;2062745;28;20204;-63
2022/10/14 00:13:34;;;;;;;14.60;10.20;;;;;;;13.78;100.00;101975.88;2061828;28;20471;-63
2022/10/14 00:14:35;;;;;;;13.67;9.73;;;;;;;13.77;100.00;101967.94;2063554;28;20197;-63
2022/10/14 00:15:39;;;;;;;13.63;9.83;;;;;;;13.30;100.00;101903.03;2062312;28;20224;-63
2022/10/14 00:16:41;;;;;;;16.00;10.20;;;;;;;13.72;100.00;101971.22;2062721;28;20558;-63
2022/10/14 00:17:42;;;;;;;13.80;10.20;;;;;;;13.68;100.00;101968.47;2062855;28;20941;-63
2022/10/14 00:18:42;;;;;;;13.03;11.30;;;;;;;13.67;100.00;101966.09;2062049;28;20805;-63
2022/10/14 00:19:43;;;;;;;15.93;11.43;;;;;;;13.66;100.00;101970.91;2061213;28;20201;-63
2022/10/14 00:20:53;;;;;;;14.87;12.33;;;;;;;13.62;100.00;101964.59;2062504;28;20274;-63
2022/10/14 00:21:53;;;;;;;14.40;11.50;;;;;;;13.60;100.00;101967.03;2063031;28;20177;-63
2022/10/14 00:22:53;;;;;;;14.60;11.70;;;;;;;13.60;100.00;101960.66;2062281;28;20443;-63
2022/10/14 00:23:55;;;;;;;14.50;12.30;;;;;;;13.60;100.00;101960.66;2069342;28;20188;-63
2022/10/14 00:24:55;;;;;;;14.67;11.90;;;;;;;13.58;100.00;101963.84;2064484;28;20201;-63
2022/10/14 00:25:56;;;;;;;15.10;12.57;;;;;;;13.57;100.00;101965.06;2064354;28;20490;-63
2022/10/14 00:26:56;;;;;;;13.67;12.10;;;;;;;13.54;100.00;101957.56;2064046;28;20194;-63
2022/10/14 00:27:57;;;;;;;17.40;12.67;;;;;;;13.54;100.00;101959.56;2064464;28;20343;-63
2022/10/14 00:28:58;;;;;;;17.63;13.03;;;;;;;13.52;100.00;101962.75;2063844;28;20201;-63
2022/10/14 00:29:59;;;;;;;17.00;13.63;;;;;;;13.52;100.00;101951.63;2063932;28;20588;-63
2022/10/14 00:31:01;;;;;;;17.10;12.57;;;;;;;13.52;100.00;101953.63;2064178;28;20453;-63
2022/10/14 00:32:01;;;;;;;14.40;12.40;;;;;;;13.51;100.00;101954.81;2064205;28;20242;-63
2022/10/14 00:33:02;;;;;;;16.13;12.70;;;;;;;13.50;100.00;101956.03;2064794;28;20431;-63
2022/10/14 00:34:02;;;;;;;15.60;12.33;;;;;;;13.04;100.00;101883.53;2063454;28;20285;-63
2022/10/14 00:35:03;;;;;;;14.40;12.40;;;;;;;13.46;100.00;101949.72;2063950;28;20697;-63
2022/10/14 00:36:05;;;;;;;15.53;12.33;;;;;;;13.45;100.00;101945.38;2064309;28;20223;-63
2022/10/14 00:37:06;;;;;;;16.73;11.50;;;;;;;13.44;100.00;101943.78;2063645;28;20453;-63
2022/10/14 00:38:06;;;;;;;14.60;11.87;;;;;;;13.44;100.00;101952.16;2063602;28;20936;-63
2022/10/14 00:39:07;;;;;;;14.33;11.27;;;;;;;13.41;100.00;101958.53;2063608;28;20274;-63
2022/10/14 00:40:08;;;;;;;16.10;11.80;;;;;;;13.37;100.00;101953.03;2063767;28;20192;-63
2022/10/14 00:41:13;;;;;;;16.43;11.03;;;;;;;13.36;100.00;101947.88;2069498;28;20188;-63
2022/10/14 00:42:14;;;;;;;21.00;13.00;;;;;;;13.35;100.00;101949.09;2064247;28;20884;-63
2022/10/14 00:43:14;;;;;;;17.70;12.17;;;;;;;13.32;100.00;101952.72;2064347;28;20438;-63
2022/10/14 00:44:18;;;;;;;17.23;12.17;;;;;;;13.26;100.00;101946.03;2063471;28;20453;-63
2022/10/14 00:45:22;;;;;;;18.50;12.83;;;;;;;13.23;100.00;101944.09;2063647;28;20656;-63
2022/10/14 00:46:24;;;;;;;17.97;12.80;;;;;;;13.20;100.00;101942.13;2064155;28;20573;-63
2022/10/14 00:47:24;;;;;;;21.43;15.07;;;;;;;13.18;100.00;101945.38;2066345;28;20542;-63
2022/10/14 00:48:25;;;;;;;17.30;12.90;;;;;;;13.16;100.00;101944.22;2068737;28;20428;-63
2022/10/14 00:49:30;;;;;;;20.67;13.40;;;;;;;13.14;100.00;101947.41;2063321;28;20594;-63
2022/10/14 00:50:31;;;;;;;18.33;13.50;;;;;;;13.14;100.00;101944.63;2069809;28;20719;-63
2022/10/14 00:51:33;;;;;;;17.73;13.20;;;;;;;13.13;100.00;101939.47;2072223;28;20443;-63
2022/10/14 00:52:33;;;;;;;17.07;13.40;;;;;;;13.11;100.00;101944.66;2064213;28;20951;-63
2022/10/14 00:53:35;;;;;;;17.73;13.27;;;;;;;13.10;100.00;101943.06;2063329;28;20455;-63
2022/10/14 00:55:03;;;;;;;18.87;14.73;;;;;;;12.78;100.00;101904.50;2064011;28;20199;-63
2022/10/14 00:56:06;;;;;;;20.50;14.80;;;;;;;13.04;100.00;101950.31;2064172;28;20455;-63
2022/10/14 00:57:08;;;;;;;16.03;13.60;;;;;;;13.03;100.00;101945.97;2064117;28;21261;-63
2022/10/14 00:58:09;;;;;;;19.03;13.67;;;;;;;12.98;100.00;101946.41;2063473;28;20514;-63
2022/10/14 00:59:10;;;;;;;17.57;15.67;;;;;;;12.70;100.00;101908.56;2063683;28;20453;-63
2022/10/14 01:00:17;;;;;;;20.97;17.90;;;;;;;12.96;100.00;101946.81;2063991;28;20991;-63
2022/10/14 01:01:17;;;;;;;22.87;17.77;;;;;;;12.97;100.00;101961.53;2064015;28;21137;-63
2022/10/14 01:02:18;;;;;;;23.97;16.20;;;;;;;12.98;100.00;101951.97;2063813;28;20830;-63
2022/10/14 01:03:21;;;;;;;22.50;16.90;;;;;;;12.99;100.00;101957.13;2063970;28;20191;-63
2022/10/14 01:04:21;;;;;;;19.33;14.67;;;;;;;12.96;100.00;101962.75;2063367;28;20188;-63
2022/10/14 01:05:29;;;;;;;21.67;17.33;;;;;;;12.95;100.00;101967.50;2064389;28;20424;-63
2022/10/14 01:06:59;;;;;;;22.30;17.50;;;;;;;12.97;100.00;101967.09;2064739;28;20187;-64
2022/10/14 01:08:29;;;;;;;20.90;17.77;;;;;;;13.00;100.00;101967.06;2064013;28;20451;-63
2022/10/14 01:09:41;;;;;;;16.30;14.53;;;;;;;13.01;100.00;101965.06;2063928;28;20460;-63
2022/10/14 01:11:04;;;;;;;20.50;15.33;;;;;;;13.00;100.00;101969.03;2063942;28;20543;-63
2022/10/14 01:12:43;;;;;;;16.43;13.40;;;;;;;12.99;100.00;101967.47;2064108;28;20448;-63
2022/10/14 01:14:14;;;;;;;19.63;13.97;;;;;;;12.98;100.00;101961.13;2062168;28;20887;-63
2022/10/14 01:15:39;;;;;;;17.70;14.40;;;;;;;12.99;100.00;101951.56;2063209;28;20459;-63
2022/10/14 01:16:53;;;;;;;21.20;15.43;;;;;;;12.98;100.00;101952.78;2063420;28;20449;-63
2022/10/14 01:18:15;;;;;;;18.43;12.93;;;;;;;12.99;100.00;101959.13;2064235;28;20943;-63
2022/10/14 01:19:34;;;;;;;19.80;16.10;;;;;;;12.91;100.00;101960.41;2063726;28;20427;-63
2022/10/14 01:20:53;;;;;;;22.57;18.90;;;;;;;12.95;100.00;101961.13;2063713;28;20427;-63
2022/10/14 01:22:06;;;;;;;22.87;14.93;;;;;;;12.89;100.00;101949.69;2063912;28;20435;-63
2022/10/14 01:23:43;;;;;;;20.80;14.67;;;;;;;12.93;100.00;101953.22;2063249;28;20465;-63
2022/10/14 01:25:01;;;;;;;22.67;17.10;;;;;;;12.88;100.00;101955.66;2063481;28;20443;-63
2022/10/14 01:26:30;;;;;;;55.47;49.80;;;;;;;12.79;100.00;101958.13;2064405;28;20477;-63
2022/10/14 01:27:53;;;;;;;68.73;61.57;;;;;;;12.77;100.00;101958.59;2063415;28;20427;-63
2022/10/14 01:29:00;;;;;;;69.07;61.67;;;;;;;12.77;100.00;101957.78;2062370;28;21153;-63
2022/10/14 01:30:08;;;;;;;57.90;51.90;;;;;;;12.79;100.00;101958.13;2063301;28;20473;-63
2022/10/14 01:31:17;;;;;;;43.60;38.87;;;;;;;12.77;100.00;101955.81;2063720;28;20446;-63
2022/10/14 01:32:46;;;;;;;48.37;43.50;;;;;;;12.79;100.00;101955.34;2063952;28;20506;-63
2022/10/14 01:33:51;;;;;;;48.87;43.97;;;;;;;12.76;100.00;101956.97;2061851;28;20962;-63
2022/10/14 01:35:19;;;;;;;44.27;39.57;;;;;;;12.77;100.00;101955.00;2062907;28;20483;-63
2022/10/14 01:36:30;;;;;;;31.40;28.00;;;;;;;12.76;100.00;101959.00;2063848;28;20449;-63
2022/10/14 01:37:33;;;;;;;29.67;26.13;;;;;;;12.77;100.00;101961.38;2063685;28;20448;-63
2022/10/14 01:38:42;;;;;;;31.87;27.20;;;;;;;12.76;100.00;101953.44;2063581;28;21172;-63
2022/10/14 01:39:54;;;;;;;32.97;27.60;;;;;;;12.73;100.00;101952.25;2063686;28;20547;-63
2022/10/14 01:41:19;;;;;;;35.80;29.33;;;;;;;12.73;100.00;101959.81;2066611;28;20823;-63
2022/10/14 01:42:24;;;;;;;29.17;25.67;;;;;;;12.72;100.00;101956.25;2063633;28;20924;-63
2022/10/14 01:43:28;;;;;;;33.50;27.97;;;;;;;12.71;100.00;101951.09;2063481;28;20414;-63
2022/10/14 01:44:31;;;;;;;30.33;25.80;;;;;;;12.35;100.00;101900.63;2064425;28;20441;-63
2022/10/14 01:45:35;;;;;;;30.63;27.33;;;;;;;12.43;100.00;101907.72;2063220;28;20483;-63
2022/10/14 01:46:39;;;;;;;28.33;23.13;;;;;;;12.71;100.00;101951.09;2063738;28;20448;-63
2022/10/14 01:47:40;;;;;;;24.90;20.83;;;;;;;12.34;100.00;101890.72;2064024;28;20472;-63
2022/10/14 01:48:46;;;;;;;19.77;17.20;;;;;;;12.73;100.00;101943.91;2063458;28;20831;-63
2022/10/14 01:49:54;;;;;;;22.40;17.80;;;;;;;12.72;100.00;101945.13;2065569;28;20472;-63
2022/10/14 01:50:58;;;;;;;24.17;18.27;;;;;;;12.41;100.00;101895.44;2067416;28;20445;-63
2022/10/14 01:52:06;;;;;;;22.67;17.33;;;;;;;12.71;100.00;101946.31;2063475;28;20507;-63
2022/10/14 01:53:13;;;;;;;19.90;15.80;;;;;;;12.72;100.00;101947.91;2063960;28;20442;-64
2022/10/14 01:54:26;;;;;;;20.63;16.67;;;;;;;12.70;100.00;101943.97;2062946;28;20448;-63
2022/10/14 01:55:31;;;;;;;18.43;15.87;;;;;;;12.65;100.00;101936.84;2063197;28;20462;-63
2022/10/14 01:56:33;;;;;;;21.93;17.90;;;;;;;12.32;100.00;101887.59;2063771;28;20449;-63
2022/10/14 01:57:38;;;;;;;22.30;16.30;;;;;;;12.02;100.00;101850.56;2063575;28;20425;-63
2022/10/14 01:58:40;;;;;;;21.67;16.23;;;;;;;12.12;100.00;101858.81;2063278;28;20436;-63
2022/10/14 01:59:42;;;;;;;17.80;15.93;;;;;;;12.56;100.00;101925.41;2063345;28;20430;-63
2022/10/14 02:00:43;;;;;;;19.87;15.87;;;;;;;12.62;100.00;101940.47;2064166;28;21032;-63
2022/10/14 02:01:43;;;;;;;19.70;16.47;;;;;;;12.65;100.00;101936.84;2063670;28;20816;-63
2022/10/14 02:02:44;;;;;;;19.93;16.17;;;;;;;12.64;100.00;101942.81;2063409;28;20272;-63
2022/10/14 02:03:46;;;;;;;20.43;17.23;;;;;;;12.54;100.00;101929.81;2062925;28;20190;-63
2022/10/14 02:04:46;;;;;;;20.67;16.57;;;;;;;12.59;100.00;101940.50;2063346;28;20204;-63
2022/10/14 02:06:08;;;;;;;20.50;15.90;;;;;;;12.56;100.00;101939.31;2063632;28;20448;-63
2022/10/14 02:07:19;;;;;;;21.30;16.30;;;;;;;12.57;100.00;101935.38;2063827;28;20200;-63
2022/10/14 02:08:58;;;;;;;22.20;16.17;;;;;;;12.57;100.00;101943.72;2063455;28;20443;-63
2022/10/14 02:10:28;;;;;;;19.80;16.53;;;;;;;12.57;100.00;101935.38;2063842;28;20415;-63
2022/10/14 02:11:40;;;;;;;20.63;15.43;;;;;;;12.56;100.00;101946.91;2062805;28;21069;-63
2022/10/14 02:13:07;;;;;;;21.80;16.50;;;;;;;12.35;100.00;101899.88;2063403;28;20456;-63
2022/10/14 02:14:20;;;;;;;16.87;14.80;;;;;;;12.57;100.00;101926.22;2062798;28;20534;-63
2022/10/14 02:15:39;;;;;;;17.37;14.83;;;;;;;12.58;100.00;101936.13;2063235;28;20449;-63
2022/10/14 02:16:50;;;;;;;20.73;15.03;;;;;;;12.57;100.00;101929.81;2063476;28;20433;-63
2022/10/14 02:18:23;;;;;;;18.27;14.33;;;;;;;12.58;100.00;101928.59;2063924;28;20448;-63
2022/10/14 02:19:35;;;;;;;19.67;15.70;;;;;;;12.60;100.00;101930.97;2062813;28;20929;-63
2022/10/14 02:20:41;;;;;;;21.23;15.30;;;;;;;12.56;100.00;101919.09;2063778;28;20926;-63
2022/10/14 02:21:58;;;;;;;17.67;15.70;;;;;;;12.59;100.00;101930.16;2063042;28;20963;-63
2022/10/14 02:23:25;;;;;;;21.47;15.10;;;;;;;12.58;100.00;101922.22;2063532;28;20432;-63
2022/10/14 02:24:36;;;;;;;19.77;16.00;;;;;;;12.58;100.00;101928.59;2059886;28;20955;-63
2022/10/14 02:25:40;;;;;;;18.73;15.43;;;;;;;12.64;100.00;101935.28;2063016;28;20449;-63
2022/10/14 02:26:42;;;;;;;18.80;14.17;;;;;;;12.64;100.00;101935.28;2063237;28;20447;-63
2022/10/14 02:27:46;;;;;;;20.60;14.87;;;;;;;12.65;100.00;101930.50;2063396;28;20455;-63
2022/10/14 02:28:47;;;;;;;19.67;13.90;;;;;;;12.65;100.00;101936.06;2062940;28;20468;-63
2022/10/14 02:29:50;;;;;;;16.97;13.83;;;;;;;12.39;100.00;101895.03;2063552;28;20436;-63
2022/10/14 02:30:56;;;;;;;17.20;13.03;;;;;;;12.68;100.00;101924.09;2070438;28;20961;-63
2022/10/14 02:31:59;;;;;;;18.83;13.67;;;;;;;12.70;100.00;101925.25;2063342;28;20500;-63
2022/10/14 02:33:00;;;;;;;17.70;13.83;;;;;;;12.71;100.00;101924.06;2063957;28;20452;-63
2022/10/14 02:34:04;;;;;;;15.07;13.13;;;;;;;12.63;100.00;101913.44;2061801;28;20453;-63
2022/10/14 02:35:08;;;;;;;19.00;14.07;;;;;;;12.70;100.00;101925.25;2062781;28;20875;-63
2022/10/14 02:36:12;;;;;;;23.27;14.47;;;;;;;12.67;100.00;101916.97;2063331;28;20454;-63
2022/10/14 02:37:15;;;;;;;30.53;14.60;;;;;;;12.66;100.00;101915.41;2063298;28;20499;-63
2022/10/14 02:38:19;;;;;;;23.80;13.93;;;;;;;12.65;100.00;101920.16;2063195;28;20557;-65
2022/10/14 02:39:28;;;;;;;19.53;14.10;;;;;;;12.66;100.00;101920.97;2062543;28;21037;-65
2022/10/14 02:40:35;;;;;;;23.67;13.10;;;;;;;12.64;100.00;101923.34;2061959;28;20725;-65
2022/10/14 02:41:37;;;;;;;16.10;13.00;;;;;;;12.62;100.00;101914.63;2067313;28;20591;-65
2022/10/14 02:42:38;;;;;;;16.73;12.57;;;;;;;12.63;100.00;101917.00;2062998;28;20455;-65
2022/10/14 02:43:38;;;;;;;17.10;12.70;;;;;;;12.62;100.00;101917.44;2062738;28;20434;-65
2022/10/14 02:44:52;;;;;;;16.83;13.03;;;;;;;12.59;100.00;101910.69;2063032;28;20204;-65
2022/10/14 02:45:57;;;;;;;16.70;12.47;;;;;;;12.57;100.00;101913.13;2063020;28;20675;-65
2022/10/14 02:46:57;;;;;;;15.87;12.10;;;;;;;12.56;100.00;101910.75;2062974;28;21016;-65
2022/10/14 02:47:58;;;;;;;17.20;12.40;;;;;;;12.54;100.00;101915.91;2063912;28;20933;-65
2022/10/14 02:48:58;;;;;;;16.93;12.50;;;;;;;12.51;100.00;101911.97;2061958;28;20633;-65
2022/10/14 02:49:58;;;;;;;16.73;13.60;;;;;;;12.46;100.00;101906.88;2065776;28;20196;-65
2022/10/14 02:50:59;;;;;;;17.03;13.37;;;;;;;12.43;100.00;101910.50;2065398;28;20206;-65
2022/10/14 02:51:59;;;;;;;15.37;13.03;;;;;;;12.43;100.00;101913.28;2062776;28;20198;-65
2022/10/14 02:53:00;;;;;;;21.70;13.87;;;;;;;12.43;100.00;101920.81;2064362;28;20312;-65
2022/10/14 02:54:01;;;;;;;18.47;13.43;;;;;;;12.42;100.00;101920.03;2068291;28;20187;-65
2022/10/14 02:55:01;;;;;;;17.03;14.00;;;;;;;12.32;100.00;101904.25;2062820;28;20227;-65
2022/10/14 02:56:02;;;;;;;16.17;13.37;;;;;;;12.39;100.00;101918.06;2063745;28;20187;-65
2022/10/14 02:57:02;;;;;;;18.03;13.93;;;;;;;11.95;100.00;101856.97;2062195;28;20205;-65
2022/10/14 02:58:03;;;;;;;17.50;14.33;;;;;;;12.35;100.00;101916.53;2062347;28;20187;-65
2022/10/14 02:59:03;;;;;;;17.30;14.97;;;;;;;12.06;100.00;101876.34;2062809;28;20632;-65
2022/10/14 03:00:05;;;;;;;17.67;14.63;;;;;;;12.29;100.00;101916.19;2063132;28;20265;-65
2022/10/14 03:01:06;;;;;;;17.00;15.20;;;;;;;12.23;100.00;101923.41;2063113;28;20256;-65
2022/10/14 03:02:07;;;;;;;17.10;14.60;;;;;;;12.22;100.00;101923.81;2062800;28;20487;-65
2022/10/14 03:03:07;;;;;;;19.27;15.03;;;;;;;12.19;100.00;101930.22;2063080;28;20182;-65
2022/10/14 03:04:08;;;;;;;17.30;14.33;;;;;;;12.19;100.00;101930.22;2062985;28;21208;-65
2022/10/14 03:05:09;;;;;;;17.23;15.03;;;;;;;11.80;100.00;101863.09;2063092;28;20223;-65
2022/10/14 03:06:09;;;;;;;17.20;14.10;;;;;;;12.18;100.00;101923.06;2063125;28;20209;-65
2022/10/14 03:07:10;;;;;;;19.20;14.10;;;;;;;12.18;100.00;101928.59;2063069;28;20257;-65
2022/10/14 03:08:10;;;;;;;16.47;13.33;;;;;;;12.21;100.00;101925.81;2063353;28;20205;-65
2022/10/14 03:09:10;;;;;;;15.63;13.67;;;;;;;12.22;100.00;101923.81;2062898;28;20677;-66
2022/10/14 03:10:11;;;;;;;14.57;12.90;;;;;;;12.21;100.00;101936.94;2062892;28;20217;-65
2022/10/14 03:11:11;;;;;;;17.07;12.73;;;;;;;12.24;100.00;101924.22;2063109;28;20214;-65
2022/10/14 03:12:12;;;;;;;16.47;13.00;;;;;;;12.22;100.00;101916.28;2063581;28;20205;-65
2022/10/14 03:13:13;;;;;;;16.00;13.30;;;;;;;12.00;100.00;101887.09;2062989;28;20255;-65
2022/10/14 03:14:13;;;;;;;16.80;13.27;;;;;;;12.26;100.00;101922.59;2062571;28;20608;-65
2022/10/14 03:15:14;;;;;;;18.90;13.67;;;;;;;12.27;100.00;101923.38;2062913;28;20456;-65
2022/10/14 03:16:15;;;;;;;17.30;13.57;;;;;;;12.28;100.00;101920.19;2063228;28;20264;-65
2022/10/14 03:17:15;;;;;;;16.07;13.50;;;;;;;12.30;100.00;101925.34;2062812;28;20540;-65
2022/10/14 03:18:16;;;;;;;16.97;13.47;;;;;;;12.04;100.00;101878.75;2062726;28;20201;-65
2022/10/14 03:19:16;;;;;;;19.07;13.13;;;;;;;12.30;100.00;101911.44;2062862;28;20193;-65
2022/10/14 03:20:17;;;;;;;15.60;12.70;;;;;;;11.97;100.00;101853.81;2063814;28;20186;-65
2022/10/14 03:21:17;;;;;;;16.37;12.43;;;;;;;12.21;100.00;101900.81;2063272;28;20237;-65
2022/10/14 03:22:18;;;;;;;16.37;11.73;;;;;;;12.33;100.00;101916.16;2062936;28;20207;-65
2022/10/14 03:23:18;;;;;;;14.23;11.30;;;;;;;12.34;100.00;101920.53;2063414;28;20268;-65
2022/10/14 03:24:19;;;;;;;18.37;12.50;;;;;;;12.34;100.00;101912.19;2066128;28;20611;-65
2022/10/14 03:25:19;;;;;;;22.30;12.57;;;;;;;12.32;100.00;101909.81;2062280;28;20204;-65
2022/10/14 03:26:19;;;;;;;25.03;12.50;;;;;;;12.31;100.00;101916.59;2063173;28;20259;-65
2022/10/14 03:27:20;;;;;;;21.43;12.70;;;;;;;11.69;100.00;101815.22;2062730;28;20197;-65
2022/10/14 03:28:21;;;;;;;17.33;13.67;;;;;;;12.31;100.00;101913.00;2062910;28;20195;-65
2022/10/14 03:29:21;;;;;;;20.93;14.23;;;;;;;12.26;100.00;101914.25;2063060;28;20319;-65
2022/10/14 03:30:21;;;;;;;18.13;13.30;;;;;;;12.25;100.00;101907.09;2063211;28;20215;-65
2022/10/14 03:31:22;;;;;;;19.30;13.90;;;;;;;12.26;100.00;101914.25;2063036;28;20241;-65
2022/10/14 03:32:22;;;;;;;17.43;14.90;;;;;;;12.26;100.00;101919.81;2063258;28;20206;-65
2022/10/14 03:33:23;;;;;;;15.23;13.57;;;;;;;11.93;100.00;101866.97;2062721;28;20202;-65
2022/10/14 03:34:23;;;;;;;16.30;12.50;;;;;;;12.23;100.00;101923.41;2062615;28;20190;-65
2022/10/14 03:35:24;;;;;;;13.53;11.90;;;;;;;12.25;100.00;101920.22;2062742;28;20189;-65
2022/10/14 03:36:25;;;;;;;15.00;12.13;;;;;;;12.24;100.00;101919.41;2063248;28;20732;-65
2022/10/14 03:37:25;;;;;;;16.93;12.17;;;;;;;12.22;100.00;101913.50;2062569;28;20445;-65
2022/10/14 03:38:25;;;;;;;17.33;12.93;;;;;;;11.93;100.00;101870.50;2062688;28;20207;-65
2022/10/14 03:39:26;;;;;;;16.50;12.70;;;;;;;12.20;100.00;101907.53;2062405;28;20266;-65
2022/10/14 03:40:26;;;;;;;15.67;12.60;;;;;;;12.20;100.00;101915.13;2065731;28;20659;-65
2022/10/14 03:41:27;;;;;;;15.60;13.77;;;;;;;12.20;100.00;101915.88;2068025;28;20281;-65
2022/10/14 03:42:27;;;;;;;16.40;13.50;;;;;;;12.12;100.00;101906.06;2062970;28;20748;-65
2022/10/14 03:43:28;;;;;;;17.73;13.47;;;;;;;12.19;100.00;101919.88;2062112;28;20190;-65
2022/10/14 03:44:28;;;;;;;19.10;15.83;;;;;;;12.18;100.00;101911.94;2063274;28;20317;-65
2022/10/14 03:45:29;;;;;;;18.13;14.93;;;;;;;12.16;100.00;101917.94;2068124;28;20212;-65
2022/10/14 03:46:30;;;;;;;18.07;14.90;;;;;;;12.12;100.00;101919.16;2064522;28;20537;-65
2022/10/14 03:47:30;;;;;;;18.93;15.10;;;;;;;12.09;100.00;101922.78;2062907;28;20592;-65
2022/10/14 03:48:31;;;;;;;20.17;15.60;;;;;;;12.06;100.00;101927.16;2062639;28;20194;-65
2022/10/14 03:49:31;;;;;;;17.43;13.83;;;;;;;12.06;100.00;101920.78;2062802;28;20234;-65
2022/10/14 03:50:32;;;;;;;17.00;14.53;;;;;;;12.06;100.00;101921.59;2068740;28;20217;-65
2022/10/14 03:51:32;;;;;;;21.53;14.83;;;;;;;12.07;100.00;101925.16;2063053;28;20690;-65
2022/10/14 03:52:33;;;;;;;16.40;14.03;;;;;;;12.06;100.00;101918.03;2063502;28;20743;-65
2022/10/14 03:53:33;;;;;;;23.97;17.13;;;;;;;12.03;100.00;101919.63;2061884;28;20199;-65
2022/10/14 03:54:33;;;;;;;17.07;14.77;;;;;;;12.05;100.00;101922.00;2063270;28;20752;-65
2022/10/14 03:55:34;;;;;;;21.43;16.40;;;;;;;12.04;100.00;101920.44;2062586;28;20227;-65
2022/10/14 03:56:35;;;;;;;19.90;15.37;;;;;;;11.76;100.00;101892.88;2062829;28;20251;-65
2022/10/14 03:57:35;;;;;;;18.90;16.43;;;;;;;11.75;100.00;101886.56;2063410;28;20731;-65
2022/10/14 03:58:36;;;;;;;19.90;14.50;;;;;;;12.02;100.00;101922.81;2064209;28;21528;-65
2022/10/14 03:59:36;;;;;;;17.23;13.83;;;;;;;11.95;100.00;101904.22;2064225;28;20193;-65
2022/10/14 04:00:37;;;;;;;21.20;13.70;;;;;;;12.05;100.00;101919.22;2065069;28;20253;-65
2022/10/14 04:01:37;;;;;;;18.43;13.77;;;;;;;12.03;100.00;101921.59;2064037;28;20200;-65
2022/10/14 04:02:37;;;;;;;18.27;14.27;;;;;;;12.02;100.00;101928.38;2064676;28;20187;-65
2022/10/14 04:03:40;;;;;;;17.60;14.27;;;;;;;12.03;100.00;101914.06;2063567;28;20365;-65
2022/10/14 04:04:40;;;;;;;21.33;14.20;;;;;;;12.04;100.00;101923.22;2064411;28;20755;-65
2022/10/14 04:05:41;;;;;;;18.20;13.73;;;;;;;12.06;100.00;101924.38;2064225;28;20934;-65
2022/10/14 04:06:41;;;;;;;20.20;14.43;;;;;;;12.06;100.00;101913.25;2064218;28;20196;-65
2022/10/14 04:07:42;;;;;;;21.60;14.53;;;;;;;11.99;100.00;101906.97;2064366;28;20189;-65
2022/10/14 04:08:42;;;;;;;21.03;16.60;;;;;;;12.08;100.00;101923.94;2063791;28;20235;-66
2022/10/14 04:09:43;;;;;;;21.10;15.07;;;;;;;12.05;100.00;101917.22;2065207;28;20676;-65
2022/10/14 04:10:43;;;;;;;19.90;14.93;;;;;;;11.54;100.00;101828.38;2064181;28;20214;-65
2022/10/14 04:11:44;;;;;;;21.97;15.30;;;;;;;12.13;100.00;101929.84;2064580;28;20199;-65
2022/10/14 04:12:44;;;;;;;21.07;14.30;;;;;;;12.15;100.00;101919.09;2064107;28;20222;-65
2022/10/14 04:13:44;;;;;;;19.23;13.87;;;;;;;12.15;100.00;101915.56;2063699;28;21070;-65
2022/10/14 04:14:45;;;;;;;20.97;14.17;;;;;;;12.15;100.00;101919.09;2063925;28;30475;-65
2022/10/14 04:15:46;;;;;;;22.27;16.90;;;;;;;12.13;100.00;101912.38;2064352;28;20196;-65
2022/10/14 04:16:46;;;;;;;36.10;15.70;;;;;;;12.13;100.00;101910.41;2063978;28;20195;-65
2022/10/14 04:17:47;;;;;;;22.47;16.20;;;;;;;12.13;100.00;101910.41;2065180;28;20565;-65
2022/10/14 04:18:47;;;;;;;19.33;15.03;;;;;;;12.14;100.00;101916.75;2063953;28;20193;-65
2022/10/14 04:19:47;;;;;;;15.67;13.20;;;;;;;12.13;100.00;101909.59;2063208;28;20194;-65
2022/10/14 04:20:48;;;;;;;19.20;16.03;;;;;;;12.13;100.00;101912.38;2064458;28;20308;-65
2022/10/14 04:21:48;;;;;;;20.50;15.03;;;;;;;12.14;100.00;101913.97;2064309;28;20711;-65
2022/10/14 04:22:49;;;;;;;21.60;14.27;;;;;;;12.13;100.00;101915.16;2058287;28;20201;-65
2022/10/14 04:23:50;;;;;;;30.23;14.63;;;;;;;12.14;100.00;101920.31;2060154;28;20205;-65
2022/10/14 04:24:50;;;;;;;26.43;14.90;;;;;;;12.15;100.00;101910.00;2062828;28;20226;-65
2022/10/14 04:25:51;;;;;;;26.33;14.27;;;;;;;12.11;100.00;101910.03;2059719;28;20901;-65
2022/10/14 04:26:51;;;;;;;24.13;13.73;;;;;;;12.13;100.00;101915.97;2061292;28;20328;-65
2022/10/14 04:27:52;;;;;;;23.47;13.97;;;;;;;12.12;100.00;101908.84;2060198;28;20197;-65
2022/10/14 04:28:52;;;;;;;21.90;13.63;;;;;;;12.12;100.00;101913.59;2061057;28;20631;-65
2022/10/14 04:29:52;;;;;;;22.00;14.03;;;;;;;12.09;100.00;101904.09;2061241;28;20282;-65
2022/10/14 04:30:53;;;;;;;20.17;16.13;;;;;;;12.08;100.00;101904.50;2062858;28;20194;-65
2022/10/14 04:31:53;;;;;;;26.33;13.93;;;;;;;12.07;100.00;101902.91;2061457;28;20202;-65
2022/10/14 04:32:54;;;;;;;21.67;13.60;;;;;;;12.07;100.00;101905.69;2061691;28;20205;-65
2022/10/14 04:33:54;;;;;;;15.30;12.87;;;;;;;11.51;100.00;101818.09;2061368;28;20747;-65
2022/10/14 04:34:55;;;;;;;16.33;12.57;;;;;;;12.01;100.00;101888.69;2055894;28;20199;-65
2022/10/14 04:36:05;;;;;;;21.20;13.27;;;;;;;12.04;100.00;101901.75;2056164;28;20320;-65
2022/10/14 04:37:06;;;;;;;21.27;14.20;;;;;;;11.66;100.00;101841.81;2056748;28;20171;-65
2022/10/14 04:38:06;;;;;;;27.53;15.77;;;;;;;12.03;100.00;101897.41;2057985;28;20441;-65
2022/10/14 04:39:07;;;;;;;27.43;15.43;;;;;;;12.03;100.00;101899.38;2060321;28;20206;-65
2022/10/14 04:40:07;;;;;;;26.97;17.50;;;;;;;12.02;100.00;101912.50;2060873;28;20795;-65
2022/10/14 04:41:08;;;;;;;23.83;17.60;;;;;;;11.97;100.00;101890.72;2057147;28;20289;-65
2022/10/14 04:42:08;;;;;;;25.93;19.73;;;;;;;12.00;100.00;101906.53;2056202;28;20276;-65
2022/10/14 04:43:09;;;;;;;28.37;21.00;;;;;;;12.01;100.00;101901.78;2057760;28;20186;-65
2022/10/14 04:44:09;;;;;;;37.57;26.97;;;;;;;11.91;100.00;101895.16;2056489;28;20656;-65
2022/10/14 04:45:10;;;;;;;36.93;27.23;;;;;;;12.02;100.00;101900.59;2057625;28;20341;-65
2022/10/14 04:46:10;;;;;;;43.50;29.50;;;;;;;12.01;100.00;101902.59;2054934;28;20209;-65
2022/10/14 04:47:11;;;;;;;46.37;29.33;;;;;;;12.01;100.00;101896.22;2054440;28;20217;-65
2022/10/14 04:48:12;;;;;;;43.40;29.20;;;;;;;11.53;100.00;101829.59;2057863;28;20688;-65
2022/10/14 04:49:13;;;;;;;33.63;25.23;;;;;;;12.01;100.00;101902.59;2059305;28;20808;-65